sensor_id;sensor_type;location;lat;lon;timestamp;pressure;altitude;pressure_sealevel;temperature;humidity
57990;BME280;58373;51.824;5.564;2022-08-19T00:02:03;101261.16;;;18.85;86.25
57990;BME280;58373;51.824;5.564;2022-08-19T00:04:31;101271.19;;;18.90;86.16
57990;BME280;58373;51.824;5.564;2022-08-19T00:06:58;101254.00;;;18.71;86.66
57990;BME280;58373;51.824;5.564;2022-08-19T00:09:25;101257.91;;;18.67;86.59
57990;BME280;58373;51.824;5.564;2022-08-19T00:11:52;101265.78;;;18.67;86.91
57990;BME280;58373;51.824;5.564;2022-08-19T00:14:18;101262.69;;;18.55;87.06
57990;BME280;58373;51.824;5.564;2022-08-19T00:16:45;101276.63;;;18.64;87.10
57990;BME280;58373;51.824;5.564;2022-08-19T00:19:12;101278.91;;;18.67;87.13
57990;BME280;58373;51.824;5.564;2022-08-19T00:21:37;101271.72;;;18.61;86.88
57990;BME280;58373;51.824;5.564;2022-08-19T00:24:08;101275.00;;;18.46;87.32
57990;BME280;58373;51.824;5.564;2022-08-19T00:26:34;101268.44;;;18.34;87.46
57990;BME280;58373;51.824;5.564;2022-08-19T00:29:01;101273.03;;;18.48;87.08
57990;BME280;58373;51.824;5.564;2022-08-19T00:31:26;101274.69;;;18.33;87.90
57990;BME280;58373;51.824;5.564;2022-08-19T00:33:53;101266.97;;;18.31;88.41
57990;BME280;58373;51.824;5.564;2022-08-19T00:36:19;101267.78;;;18.32;88.29
57990;BME280;58373;51.824;5.564;2022-08-19T00:38:45;101272.06;;;18.25;88.38
57990;BME280;58373;51.824;5.564;2022-08-19T00:41:16;101275.00;;;18.22;89.50
57990;BME280;58373;51.824;5.564;2022-08-19T00:43:43;101276.50;;;18.33;88.98
57990;BME280;58373;51.824;5.564;2022-08-19T00:46:21;101280.09;;;18.23;88.79
57990;BME280;58373;51.824;5.564;2022-08-19T00:48:46;101280.28;;;18.14;89.21
57990;BME280;58373;51.824;5.564;2022-08-19T00:51:11;101280.59;;;18.27;88.98
57990;BME280;58373;51.824;5.564;2022-08-19T00:53:37;101281.25;;;18.21;89.12
57990;BME280;58373;51.824;5.564;2022-08-19T00:56:03;101270.75;;;18.29;89.25
57990;BME280;58373;51.824;5.564;2022-08-19T00:58:34;101270.25;;;18.17;89.27
57990;BME280;58373;51.824;5.564;2022-08-19T01:01:01;101267.47;;;18.19;89.34
57990;BME280;58373;51.824;5.564;2022-08-19T01:03:27;101269.78;;;18.30;89.55
57990;BME280;58373;51.824;5.564;2022-08-19T01:05:53;101275.00;;;18.22;89.99
57990;BME280;58373;51.824;5.564;2022-08-19T01:08:20;101271.06;;;18.18;89.41
57990;BME280;58373;51.824;5.564;2022-08-19T01:10:52;101285.84;;;18.11;89.83
57990;BME280;58373;51.824;5.564;2022-08-19T01:13:21;101280.25;;;18.05;90.12
57990;BME280;58373;51.824;5.564;2022-08-19T01:15:53;101277.16;;;18.02;90.43
57990;BME280;58373;51.824;5.564;2022-08-19T01:18:20;101276.97;;;18.12;89.78
57990;BME280;58373;51.824;5.564;2022-08-19T01:20:47;101274.34;;;18.12;90.30
57990;BME280;58373;51.824;5.564;2022-08-19T01:23:15;101282.22;;;18.12;89.61
57990;BME280;58373;51.824;5.564;2022-08-19T01:25:44;101274.34;;;18.03;89.91
57990;BME280;58373;51.824;5.564;2022-08-19T01:28:25;101288.13;;;18.05;90.47
57990;BME280;58373;51.824;5.564;2022-08-19T01:30:51;101292.38;;;17.98;90.02
57990;BME280;58373;51.824;5.564;2022-08-19T01:33:17;101283.88;;;17.96;89.96
57990;BME280;58373;51.824;5.564;2022-08-19T01:35:44;101279.75;;;17.94;90.48
57990;BME280;58373;51.824;5.564;2022-08-19T01:38:23;101281.88;;;17.98;90.70
57990;BME280;58373;51.824;5.564;2022-08-19T01:40:49;101274.66;;;18.00;89.89
57990;BME280;58373;51.824;5.564;2022-08-19T01:43:15;101271.09;;;18.01;89.49
57990;BME280;58373;51.824;5.564;2022-08-19T01:45:40;101274.50;;;17.94;89.57
57990;BME280;58373;51.824;5.564;2022-08-19T01:48:08;101276.94;;;17.79;90.49
57990;BME280;58373;51.824;5.564;2022-08-19T01:50:35;101275.97;;;17.88;90.16
57990;BME280;58373;51.824;5.564;2022-08-19T01:53:02;101275.31;;;17.86;89.81
57990;BME280;58373;51.824;5.564;2022-08-19T01:55:28;101276.66;;;18.15;88.47
57990;BME280;58373;51.824;5.564;2022-08-19T01:57:57;101268.09;;;17.80;90.15
57990;BME280;58373;51.824;5.564;2022-08-19T02:00:26;101267.75;;;17.83;90.37
57990;BME280;58373;51.824;5.564;2022-08-19T02:02:53;101271.38;;;17.82;90.37
57990;BME280;58373;51.824;5.564;2022-08-19T02:05:18;101268.91;;;17.81;90.49
57990;BME280;58373;51.824;5.564;2022-08-19T02:07:46;101273.34;;;17.88;89.95
57990;BME280;58373;51.824;5.564;2022-08-19T02:10:15;101281.72;;;17.84;90.87
57990;BME280;58373;51.824;5.564;2022-08-19T02:12:41;101288.78;;;17.91;90.21
57990;BME280;58373;51.824;5.564;2022-08-19T02:15:06;101284.53;;;17.90;90.46
57990;BME280;58373;51.824;5.564;2022-08-19T02:17:32;101282.50;;;17.76;90.59
57990;BME280;58373;51.824;5.564;2022-08-19T02:19:58;101283.50;;;17.83;90.67
57990;BME280;58373;51.824;5.564;2022-08-19T02:22:24;101278.25;;;17.75;90.81
57990;BME280;58373;51.824;5.564;2022-08-19T02:24:54;101287.44;;;17.79;90.59
57990;BME280;58373;51.824;5.564;2022-08-19T02:27:20;101291.66;;;17.72;91.16
57990;BME280;58373;51.824;5.564;2022-08-19T02:29:48;101294.63;;;17.77;89.90
57990;BME280;58373;51.824;5.564;2022-08-19T02:32:14;101299.50;;;17.64;90.70
57990;BME280;58373;51.824;5.564;2022-08-19T02:34:40;101302.47;;;17.69;90.25
57990;BME280;58373;51.824;5.564;2022-08-19T02:37:06;101286.38;;;17.56;90.74
57990;BME280;58373;51.824;5.564;2022-08-19T02:39:52;101295.53;;;17.51;90.66
57990;BME280;58373;51.824;5.564;2022-08-19T02:42:17;101291.63;;;17.56;90.41
57990;BME280;58373;51.824;5.564;2022-08-19T02:44:42;101299.66;;;17.62;90.52
57990;BME280;58373;51.824;5.564;2022-08-19T02:47:09;101299.84;;;17.61;90.37
57990;BME280;58373;51.824;5.564;2022-08-19T02:49:34;101301.81;;;17.67;89.82
57990;BME280;58373;51.824;5.564;2022-08-19T02:52:01;101305.75;;;17.71;89.32
57990;BME280;58373;51.824;5.564;2022-08-19T02:54:26;101309.59;;;17.42;89.61
57990;BME280;58373;51.824;5.564;2022-08-19T02:56:53;101309.66;;;17.59;89.10
57990;BME280;58373;51.824;5.564;2022-08-19T02:59:18;101296.53;;;17.59;88.22
57990;BME280;58373;51.824;5.564;2022-08-19T03:01:45;101308.66;;;17.60;88.48
57990;BME280;58373;51.824;5.564;2022-08-19T03:04:12;101303.44;;;17.25;89.05
57990;BME280;58373;51.824;5.564;2022-08-19T03:06:41;101308.47;;;17.11;89.88
57990;BME280;58373;51.824;5.564;2022-08-19T03:09:07;101306.88;;;17.26;89.96
57990;BME280;58373;51.824;5.564;2022-08-19T03:11:33;101298.41;;;17.32;89.80
57990;BME280;58373;51.824;5.564;2022-08-19T03:13:59;101300.97;;;17.16;90.45
57990;BME280;58373;51.824;5.564;2022-08-19T03:16:28;101286.53;;;17.20;90.31
57990;BME280;58373;51.824;5.564;2022-08-19T03:18:56;101294.75;;;17.25;89.88
57990;BME280;58373;51.824;5.564;2022-08-19T03:21:24;101301.63;;;17.18;89.84
57990;BME280;58373;51.824;5.564;2022-08-19T03:23:50;101306.00;;;17.09;90.86
57990;BME280;58373;51.824;5.564;2022-08-19T03:26:16;101306.19;;;17.16;91.48
57990;BME280;58373;51.824;5.564;2022-08-19T03:28:42;101296.03;;;17.13;91.21
57990;BME280;58373;51.824;5.564;2022-08-19T03:31:11;101307.22;;;17.23;91.06
57990;BME280;58373;51.824;5.564;2022-08-19T03:33:38;101297.97;;;17.11;91.08
57990;BME280;58373;51.824;5.564;2022-08-19T03:38:29;101298.97;;;17.10;91.08
57990;BME280;58373;51.824;5.564;2022-08-19T03:40:55;101273.69;;;17.01;91.10
57990;BME280;58373;51.824;5.564;2022-08-19T03:43:20;101287.22;;;17.22;91.01
57990;BME280;58373;51.824;5.564;2022-08-19T03:45:46;101285.09;;;17.25;90.69
57990;BME280;58373;51.824;5.564;2022-08-19T03:48:14;101291.84;;;17.28;90.34
57990;BME280;58373;51.824;5.564;2022-08-19T03:50:40;101297.25;;;17.27;90.22
57990;BME280;58373;51.824;5.564;2022-08-19T03:53:06;101288.88;;;17.31;89.41
57990;BME280;58373;51.824;5.564;2022-08-19T03:55:33;101294.47;;;17.28;89.31
57990;BME280;58373;51.824;5.564;2022-08-19T03:57:59;101287.88;;;17.24;89.27
57990;BME280;58373;51.824;5.564;2022-08-19T04:00:24;101289.44;;;17.09;89.67
57990;BME280;58373;51.824;5.564;2022-08-19T04:02:50;101290.16;;;17.19;89.39
57990;BME280;58373;51.824;5.564;2022-08-19T04:05:15;101290.13;;;17.11;89.87
57990;BME280;58373;51.824;5.564;2022-08-19T04:07:40;101288.50;;;17.18;89.35
57990;BME280;58373;51.824;5.564;2022-08-19T04:10:06;101280.63;;;17.10;88.96
57990;BME280;58373;51.824;5.564;2022-08-19T04:12:31;101290.78;;;17.13;88.42
57990;BME280;58373;51.824;5.564;2022-08-19T04:14:57;101285.53;;;17.13;88.22
57990;BME280;58373;51.824;5.564;2022-08-19T04:17:23;101281.94;;;17.14;87.79
57990;BME280;58373;51.824;5.564;2022-08-19T04:19:49;101282.06;;;17.04;87.76
57990;BME280;58373;51.824;5.564;2022-08-19T04:22:14;101276.50;;;17.07;87.00
57990;BME280;58373;51.824;5.564;2022-08-19T04:24:39;101268.44;;;17.01;86.01
57990;BME280;58373;51.824;5.564;2022-08-19T04:27:05;101276.09;;;16.94;85.76
57990;BME280;58373;51.824;5.564;2022-08-19T04:29:31;101276.22;;;16.84;86.04
57990;BME280;58373;51.824;5.564;2022-08-19T04:31:58;101277.16;;;16.75;86.59
57990;BME280;58373;51.824;5.564;2022-08-19T04:34:26;101282.41;;;16.75;86.28
57990;BME280;58373;51.824;5.564;2022-08-19T04:36:55;101277.97;;;16.76;86.42
57990;BME280;58373;51.824;5.564;2022-08-19T04:39:26;101279.00;;;16.65;86.94
57990;BME280;58373;51.824;5.564;2022-08-19T04:42:10;101271.66;;;16.68;86.68
57990;BME280;58373;51.824;5.564;2022-08-19T04:44:54;101279.09;;;16.73;85.96
57990;BME280;58373;51.824;5.564;2022-08-19T04:47:19;101271.16;;;16.65;86.38
57990;BME280;58373;51.824;5.564;2022-08-19T04:49:45;101277.38;;;16.64;85.97
57990;BME280;58373;51.824;5.564;2022-08-19T04:52:10;101281.63;;;16.65;85.71
57990;BME280;58373;51.824;5.564;2022-08-19T04:54:35;101280.16;;;16.44;85.56
57990;BME280;58373;51.824;5.564;2022-08-19T04:57:01;101279.56;;;16.51;85.79
57990;BME280;58373;51.824;5.564;2022-08-19T04:59:26;101275.84;;;16.35;86.30
57990;BME280;58373;51.824;5.564;2022-08-19T05:01:51;101271.22;;;16.29;87.00
57990;BME280;58373;51.824;5.564;2022-08-19T05:04:19;101287.00;;;16.37;86.73
57990;BME280;58373;51.824;5.564;2022-08-19T05:06:46;101292.84;;;16.31;87.73
57990;BME280;58373;51.824;5.564;2022-08-19T05:09:13;101287.59;;;16.31;88.33
57990;BME280;58373;51.824;5.564;2022-08-19T05:11:39;101289.91;;;16.34;88.10
57990;BME280;58373;51.824;5.564;2022-08-19T05:14:08;101303.06;;;16.42;87.87
57990;BME280;58373;51.824;5.564;2022-08-19T05:16:34;101292.59;;;16.42;87.96
57990;BME280;58373;51.824;5.564;2022-08-19T05:19:00;101294.25;;;16.43;87.72
57990;BME280;58373;51.824;5.564;2022-08-19T05:21:44;101289.97;;;16.42;87.07
57990;BME280;58373;51.824;5.564;2022-08-19T05:24:29;101309.91;;;16.35;89.13
57990;BME280;58373;51.824;5.564;2022-08-19T05:26:55;101314.75;;;16.30;90.12
57990;BME280;58373;51.824;5.564;2022-08-19T05:29:26;101316.59;;;16.38;89.39
57990;BME280;58373;51.824;5.564;2022-08-19T05:31:53;101308.59;;;16.39;89.52
57990;BME280;58373;51.824;5.564;2022-08-19T05:34:20;101318.16;;;16.49;89.50
57990;BME280;58373;51.824;5.564;2022-08-19T05:36:48;101320.34;;;16.53;90.09
57990;BME280;58373;51.824;5.564;2022-08-19T05:39:17;101322.19;;;16.61;90.16
57990;BME280;58373;51.824;5.564;2022-08-19T05:41:45;101317.41;;;16.56;90.87
57990;BME280;58373;51.824;5.564;2022-08-19T05:44:11;101316.81;;;16.44;92.20
57990;BME280;58373;51.824;5.564;2022-08-19T05:46:38;101321.44;;;16.51;93.04
57990;BME280;58373;51.824;5.564;2022-08-19T05:49:06;101323.41;;;16.49;93.70
57990;BME280;58373;51.824;5.564;2022-08-19T05:51:33;101330.81;;;16.71;92.33
57990;BME280;58373;51.824;5.564;2022-08-19T05:54:00;101331.41;;;16.65;94.02
57990;BME280;58373;51.824;5.564;2022-08-19T05:56:26;101321.00;;;16.73;93.05
57990;BME280;58373;51.824;5.564;2022-08-19T05:58:52;101339.22;;;16.75;94.81
57990;BME280;58373;51.824;5.564;2022-08-19T06:01:20;101328.84;;;16.73;94.97
57990;BME280;58373;51.824;5.564;2022-08-19T06:03:46;101317.91;;;16.78;95.17
57990;BME280;58373;51.824;5.564;2022-08-19T06:06:14;101323.00;;;16.79;95.91
57990;BME280;58373;51.824;5.564;2022-08-19T06:08:40;101331.31;;;16.92;95.20
57990;BME280;58373;51.824;5.564;2022-08-19T06:11:35;101325.13;;;17.02;94.98
57990;BME280;58373;51.824;5.564;2022-08-19T06:14:04;101323.13;;;16.95;95.10
57990;BME280;58373;51.824;5.564;2022-08-19T06:16:30;101315.25;;;16.95;94.92
57990;BME280;58373;51.824;5.564;2022-08-19T06:18:58;101317.09;;;17.03;94.44
57990;BME280;58373;51.824;5.564;2022-08-19T06:21:27;101319.06;;;17.01;95.19
57990;BME280;58373;51.824;5.564;2022-08-19T06:23:53;101314.09;;;17.24;93.76
57990;BME280;58373;51.824;5.564;2022-08-19T06:26:20;101313.91;;;17.17;94.32
57990;BME280;58373;51.824;5.564;2022-08-19T06:28:47;101309.66;;;17.24;94.28
57990;BME280;58373;51.824;5.564;2022-08-19T06:31:17;101303.97;;;17.29;94.55
57990;BME280;58373;51.824;5.564;2022-08-19T06:33:44;101311.72;;;17.39;94.00
57990;BME280;58373;51.824;5.564;2022-08-19T06:36:23;101314.69;;;17.44;93.92
57990;BME280;58373;51.824;5.564;2022-08-19T06:38:57;101309.63;;;17.50;93.30
57990;BME280;58373;51.824;5.564;2022-08-19T06:41:24;101317.16;;;17.45;94.31
57990;BME280;58373;51.824;5.564;2022-08-19T06:43:50;101315.00;;;17.41;94.06
57990;BME280;58373;51.824;5.564;2022-08-19T06:46:17;101318.78;;;17.46;94.51
57990;BME280;58373;51.824;5.564;2022-08-19T06:48:43;101319.59;;;17.47;94.71
57990;BME280;58373;51.824;5.564;2022-08-19T06:51:09;101314.88;;;17.50;94.79
57990;BME280;58373;51.824;5.564;2022-08-19T06:53:34;101318.84;;;17.63;93.62
57990;BME280;58373;51.824;5.564;2022-08-19T06:56:00;101307.66;;;17.52;94.63
57990;BME280;58373;51.824;5.564;2022-08-19T06:58:30;101312.59;;;17.56;94.33
57990;BME280;58373;51.824;5.564;2022-08-19T07:01:02;101330.06;;;17.73;93.83
57990;BME280;58373;51.824;5.564;2022-08-19T07:03:30;101329.34;;;17.63;94.42
57990;BME280;58373;51.824;5.564;2022-08-19T07:05:56;101331.88;;;17.72;93.84
57990;BME280;58373;51.824;5.564;2022-08-19T07:08:22;101331.97;;;17.71;94.13
57990;BME280;58373;51.824;5.564;2022-08-19T07:10:47;101330.34;;;17.70;94.16
57990;BME280;58373;51.824;5.564;2022-08-19T07:13:14;101330.34;;;17.70;93.88
57990;BME280;58373;51.824;5.564;2022-08-19T07:15:40;101324.63;;;17.66;94.05
57990;BME280;58373;51.824;5.564;2022-08-19T07:18:05;101338.28;;;17.78;93.99
57990;BME280;58373;51.824;5.564;2022-08-19T07:20:30;101342.47;;;17.71;93.65
57990;BME280;58373;51.824;5.564;2022-08-19T07:22:58;101343.03;;;17.74;94.18
57990;BME280;58373;51.824;5.564;2022-08-19T07:25:23;101342.22;;;17.82;93.77
57990;BME280;58373;51.824;5.564;2022-08-19T07:27:49;101344.19;;;17.88;94.27
57990;BME280;58373;51.824;5.564;2022-08-19T07:30:16;101348.81;;;17.94;93.50
57990;BME280;58373;51.824;5.564;2022-08-19T07:32:42;101351.13;;;18.05;93.07
57990;BME280;58373;51.824;5.564;2022-08-19T07:35:08;101351.94;;;18.06;93.05
57990;BME280;58373;51.824;5.564;2022-08-19T07:37:35;101350.47;;;18.12;93.17
57990;BME280;58373;51.824;5.564;2022-08-19T07:40:04;101338.03;;;18.14;93.09
57990;BME280;58373;51.824;5.564;2022-08-19T07:42:30;101337.38;;;18.20;91.99
57990;BME280;58373;51.824;5.564;2022-08-19T07:44:55;101346.25;;;18.35;91.30
57990;BME280;58373;51.824;5.564;2022-08-19T07:47:20;101336.06;;;18.32;92.08
57990;BME280;58373;51.824;5.564;2022-08-19T07:49:46;101346.56;;;18.32;91.86
57990;BME280;58373;51.824;5.564;2022-08-19T07:52:12;101342.63;;;18.44;92.56
57990;BME280;58373;51.824;5.564;2022-08-19T07:54:38;101348.22;;;18.57;91.04
57990;BME280;58373;51.824;5.564;2022-08-19T07:57:04;101355.13;;;18.50;91.57
57990;BME280;58373;51.824;5.564;2022-08-19T07:59:30;101356.09;;;18.66;90.26
57990;BME280;58373;51.824;5.564;2022-08-19T08:01:56;101359.75;;;18.73;90.08
57990;BME280;58373;51.824;5.564;2022-08-19T08:04:23;101368.13;;;18.68;90.84
57990;BME280;58373;51.824;5.564;2022-08-19T08:07:07;101381.09;;;18.78;89.05
57990;BME280;58373;51.824;5.564;2022-08-19T08:09:52;101380.91;;;18.79;89.32
57990;BME280;58373;51.824;5.564;2022-08-19T08:12:23;101377.31;;;18.80;88.20
57990;BME280;58373;51.824;5.564;2022-08-19T08:14:56;101376.31;;;18.73;89.54
57990;BME280;58373;51.824;5.564;2022-08-19T08:17:22;101381.72;;;18.96;89.20
57990;BME280;58373;51.824;5.564;2022-08-19T08:19:48;101382.06;;;18.85;88.39
57990;BME280;58373;51.824;5.564;2022-08-19T08:22:18;101378.47;;;18.78;89.12
57990;BME280;58373;51.824;5.564;2022-08-19T08:25:15;101382.75;;;18.87;89.17
57990;BME280;58373;51.824;5.564;2022-08-19T08:27:44;101389.97;;;18.77;89.06
57990;BME280;58373;51.824;5.564;2022-08-19T08:30:12;101387.94;;;19.03;88.82
57990;BME280;58373;51.824;5.564;2022-08-19T08:32:40;101387.34;;;18.77;88.62
57990;BME280;58373;51.824;5.564;2022-08-19T08:35:09;101401.47;;;18.76;88.91
57990;BME280;58373;51.824;5.564;2022-08-19T08:37:35;101408.38;;;18.77;89.04
57990;BME280;58373;51.824;5.564;2022-08-19T08:42:43;101411.97;;;18.84;87.82
57990;BME280;58373;51.824;5.564;2022-08-19T08:45:15;101416.06;;;18.78;88.38
57990;BME280;58373;51.824;5.564;2022-08-19T08:47:44;101424.94;;;18.77;88.49
57990;BME280;58373;51.824;5.564;2022-08-19T08:50:20;101415.56;;;18.75;87.96
57990;BME280;58373;51.824;5.564;2022-08-19T08:52:51;101424.44;;;18.74;88.59
57990;BME280;58373;51.824;5.564;2022-08-19T08:55:21;101429.03;;;18.80;88.92
57990;BME280;58373;51.824;5.564;2022-08-19T09:00:20;101426.44;;;18.88;87.74
57990;BME280;58373;51.824;5.564;2022-08-19T09:02:47;101430.69;;;18.89;87.60
57990;BME280;58373;51.824;5.564;2022-08-19T09:05:13;101425.44;;;18.97;87.18
57990;BME280;58373;51.824;5.564;2022-08-19T09:15:25;101425.75;;;19.10;86.56
57990;BME280;58373;51.824;5.564;2022-08-19T09:17:53;101423.13;;;19.02;86.16
57990;BME280;58373;51.824;5.564;2022-08-19T09:20:21;101414.91;;;19.14;86.02
57990;BME280;58373;51.824;5.564;2022-08-19T09:22:47;101427.69;;;19.25;85.78
57990;BME280;58373;51.824;5.564;2022-08-19T09:25:17;101413.09;;;19.22;85.61
57990;BME280;58373;51.824;5.564;2022-08-19T09:27:42;101425.03;;;19.41;85.99
57990;BME280;58373;51.824;5.564;2022-08-19T09:30:12;101429.34;;;19.26;85.27
57990;BME280;58373;51.824;5.564;2022-08-19T09:32:37;101420.78;;;19.40;85.33
57990;BME280;58373;51.824;5.564;2022-08-19T09:35:04;101426.00;;;19.48;84.77
57990;BME280;58373;51.824;5.564;2022-08-19T09:37:31;101420.09;;;19.62;83.84
57990;BME280;58373;51.824;5.564;2022-08-19T09:39:56;101421.38;;;19.67;83.80
57990;BME280;58373;51.824;5.564;2022-08-19T09:42:22;101419.16;;;19.86;83.08
57990;BME280;58373;51.824;5.564;2022-08-19T09:44:48;101422.88;;;20.00;82.92
57990;BME280;58373;51.824;5.564;2022-08-19T09:47:13;101425.47;;;20.08;81.48
57990;BME280;58373;51.824;5.564;2022-08-19T09:49:40;101423.09;;;20.22;81.67
57990;BME280;58373;51.824;5.564;2022-08-19T09:52:08;101424.22;;;20.27;81.54
57990;BME280;58373;51.824;5.564;2022-08-19T09:54:34;101424.69;;;20.31;81.54
57990;BME280;58373;51.824;5.564;2022-08-19T09:57:00;101430.91;;;20.38;80.44
57990;BME280;58373;51.824;5.564;2022-08-19T09:59:26;101425.97;;;20.35;80.72
57990;BME280;58373;51.824;5.564;2022-08-19T10:01:52;101424.31;;;20.34;81.84
57990;BME280;58373;51.824;5.564;2022-08-19T10:04:17;101432.19;;;20.42;81.03
57990;BME280;58373;51.824;5.564;2022-08-19T10:06:43;101423.91;;;20.53;80.45
57990;BME280;58373;51.824;5.564;2022-08-19T10:09:10;101433.38;;;20.62;81.59
57990;BME280;58373;51.824;5.564;2022-08-19T10:11:39;101429.53;;;20.73;81.58
57990;BME280;58373;51.824;5.564;2022-08-19T10:14:06;101421.56;;;20.58;79.98
57990;BME280;58373;51.824;5.564;2022-08-19T10:16:32;101426.78;;;20.66;80.08
57990;BME280;58373;51.824;5.564;2022-08-19T10:18:58;101422.50;;;20.65;79.61
57990;BME280;58373;51.824;5.564;2022-08-19T10:21:27;101427.41;;;20.68;79.63
57990;BME280;58373;51.824;5.564;2022-08-19T10:23:55;101421.81;;;20.86;80.10
57990;BME280;58373;51.824;5.564;2022-08-19T10:26:25;101423.63;;;20.86;79.92
57990;BME280;58373;51.824;5.564;2022-08-19T10:28:52;101413.66;;;20.96;78.99
57990;BME280;58373;51.824;5.564;2022-08-19T10:31:23;101422.78;;;21.08;77.88
57990;BME280;58373;51.824;5.564;2022-08-19T10:33:50;101419.97;;;21.10;78.41
57990;BME280;58373;51.824;5.564;2022-08-19T10:36:19;101427.00;;;21.17;78.27
57990;BME280;58373;51.824;5.564;2022-08-19T10:38:47;101419.81;;;21.11;77.47
57990;BME280;58373;51.824;5.564;2022-08-19T10:41:17;101419.81;;;21.26;76.94
57990;BME280;58373;51.824;5.564;2022-08-19T10:43:43;101413.34;;;21.29;77.32
57990;BME280;58373;51.824;5.564;2022-08-19T10:46:12;101418.63;;;21.29;75.76
57990;BME280;58373;51.824;5.564;2022-08-19T10:48:38;101422.06;;;21.14;77.37
57990;BME280;58373;51.824;5.564;2022-08-19T10:51:04;101422.16;;;21.21;76.91
57990;BME280;58373;51.824;5.564;2022-08-19T10:53:49;101422.34;;;21.19;77.48
57990;BME280;58373;51.824;5.564;2022-08-19T10:56:15;101411.03;;;21.34;77.27
57990;BME280;58373;51.824;5.564;2022-08-19T10:59:00;101411.94;;;21.41;78.03
57990;BME280;58373;51.824;5.564;2022-08-19T11:01:29;101410.81;;;21.50;76.71
57990;BME280;58373;51.824;5.564;2022-08-19T11:03:56;101412.09;;;21.54;76.01
57990;BME280;58373;51.824;5.564;2022-08-19T11:06:23;101410.09;;;21.56;74.83
57990;BME280;58373;51.824;5.564;2022-08-19T11:08:51;101401.53;;;21.54;76.09
57990;BME280;58373;51.824;5.564;2022-08-19T11:11:17;101399.34;;;21.72;76.83
57990;BME280;58373;51.824;5.564;2022-08-19T11:13:43;101401.00;;;21.73;75.60
57990;BME280;58373;51.824;5.564;2022-08-19T11:16:17;101401.06;;;21.80;74.49
57990;BME280;58373;51.824;5.564;2022-08-19T11:18:50;101403.88;;;21.79;75.40
57990;BME280;58373;51.824;5.564;2022-08-19T11:21:24;101402.25;;;21.78;74.71
57990;BME280;58373;51.824;5.564;2022-08-19T11:23:54;101413.88;;;21.98;74.60
57990;BME280;58373;51.824;5.564;2022-08-19T11:26:21;101404.56;;;22.02;73.69
57990;BME280;58373;51.824;5.564;2022-08-19T11:28:48;101407.75;;;22.12;74.56
57990;BME280;58373;51.824;5.564;2022-08-19T11:31:16;101397.72;;;22.08;74.38
57990;BME280;58373;51.824;5.564;2022-08-19T11:33:43;101394.59;;;22.19;74.52
57990;BME280;58373;51.824;5.564;2022-08-19T11:36:10;101394.25;;;22.22;73.62
57990;BME280;58373;51.824;5.564;2022-08-19T11:38:36;101405.13;;;22.34;73.31
57990;BME280;58373;51.824;5.564;2022-08-19T11:41:06;101404.13;;;22.35;72.13
57990;BME280;58373;51.824;5.564;2022-08-19T11:43:33;101402.50;;;22.34;71.88
57990;BME280;58373;51.824;5.564;2022-08-19T11:45:59;101396.84;;;22.37;72.96
57990;BME280;58373;51.824;5.564;2022-08-19T11:48:24;101378.84;;;22.25;72.92
57990;BME280;58373;51.824;5.564;2022-08-19T11:50:51;101383.09;;;22.48;72.51
57990;BME280;58373;51.824;5.564;2022-08-19T11:53:18;101378.25;;;22.51;71.16
57990;BME280;58373;51.824;5.564;2022-08-19T11:55:46;101387.13;;;22.65;72.27
57990;BME280;58373;51.824;5.564;2022-08-19T11:58:13;101381.19;;;22.63;71.19
57990;BME280;58373;51.824;5.564;2022-08-19T12:00:39;101385.09;;;22.89;70.77
57990;BME280;58373;51.824;5.564;2022-08-19T12:03:05;101386.09;;;22.88;71.22
57990;BME280;58373;51.824;5.564;2022-08-19T12:05:30;101390.97;;;23.12;70.34
57990;BME280;58373;51.824;5.564;2022-08-19T12:07:56;101385.75;;;23.25;70.78
57990;BME280;58373;51.824;5.564;2022-08-19T12:10:22;101381.06;;;23.27;68.26
57990;BME280;58373;51.824;5.564;2022-08-19T12:12:48;101392.97;;;23.45;68.17
57990;BME280;58373;51.824;5.564;2022-08-19T12:15:13;101381.38;;;23.46;67.95
57990;BME280;58373;51.824;5.564;2022-08-19T12:17:40;101395.97;;;23.28;67.75
57990;BME280;58373;51.824;5.564;2022-08-19T12:20:09;101395.28;;;23.61;67.80
57990;BME280;58373;51.824;5.564;2022-08-19T12:22:38;101385.63;;;23.75;66.89
57990;BME280;58373;51.824;5.564;2022-08-19T12:25:07;101394.97;;;23.77;66.98
57990;BME280;58373;51.824;5.564;2022-08-19T12:27:33;101382.75;;;23.76;66.36
57990;BME280;58373;51.824;5.564;2022-08-19T12:29:58;101387.44;;;23.40;66.19
57990;BME280;58373;51.824;5.564;2022-08-19T12:32:26;101386.28;;;23.49;66.93
57990;BME280;58373;51.824;5.564;2022-08-19T12:34:51;101375.75;;;23.27;67.07
57990;BME280;58373;51.824;5.564;2022-08-19T12:37:17;101378.19;;;23.57;67.78
57990;BME280;58373;51.824;5.564;2022-08-19T12:39:43;101375.75;;;23.62;65.55
57990;BME280;58373;51.824;5.564;2022-08-19T12:42:09;101375.97;;;23.67;65.74
57990;BME280;58373;51.824;5.564;2022-08-19T12:44:37;101371.28;;;23.63;65.48
57990;BME280;58373;51.824;5.564;2022-08-19T12:47:05;101371.63;;;23.53;65.97
57990;BME280;58373;51.824;5.564;2022-08-19T12:49:31;101370.91;;;23.66;66.10
57990;BME280;58373;51.824;5.564;2022-08-19T12:52:02;101371.91;;;23.65;66.84
57990;BME280;58373;51.824;5.564;2022-08-19T12:54:28;101371.72;;;23.66;66.77
57990;BME280;58373;51.824;5.564;2022-08-19T12:56:54;101370.69;;;23.67;66.66
57990;BME280;58373;51.824;5.564;2022-08-19T12:59:20;101373.41;;;23.80;66.52
57990;BME280;58373;51.824;5.564;2022-08-19T13:01:46;101372.47;;;23.60;66.23
57990;BME280;58373;51.824;5.564;2022-08-19T13:04:11;101366.72;;;23.50;66.42
57990;BME280;58373;51.824;5.564;2022-08-19T13:06:37;101366.81;;;23.63;66.04
57990;BME280;58373;51.824;5.564;2022-08-19T13:09:03;101366.81;;;23.63;66.47